createdAt,value
2023-01-07T00:00:10.892Z,8.30
2023-01-07T00:03:02.069Z,7.20
2023-01-07T00:05:30.831Z,6.70
2023-01-07T00:08:00.775Z,7.90
2023-01-07T00:10:29.533Z,7.30
2023-01-07T00:12:58.404Z,13.90
2023-01-07T00:15:27.203Z,22.60
2023-01-07T00:17:55.675Z,21.50
2023-01-07T00:20:24.489Z,24.80
2023-01-07T00:22:53.152Z,25.20
2023-01-07T00:25:22.048Z,19.60
2023-01-07T00:27:51.472Z,15.50
2023-01-07T00:30:20.031Z,9.90
2023-01-07T00:33:09.198Z,10.50
2023-01-07T00:35:38.205Z,9.80
2023-01-07T00:38:07.505Z,9.50
2023-01-07T00:40:36.288Z,6.80
2023-01-07T00:43:05.995Z,8.00
2023-01-07T00:45:37.386Z,8.70
2023-01-07T00:48:06.708Z,11.00
2023-01-07T00:50:37.486Z,9.10
2023-01-07T00:53:06.586Z,7.90
2023-01-07T00:55:35.478Z,9.30
2023-01-07T00:58:05.179Z,6.90
2023-01-07T01:00:34.213Z,8.30
2023-01-07T01:03:03.689Z,7.90
2023-01-07T01:05:32.963Z,7.40
2023-01-07T01:08:01.875Z,8.60
2023-01-07T01:10:31.307Z,7.50
2023-01-07T01:13:01.427Z,7.40
2023-01-07T01:15:30.138Z,8.40
2023-01-07T01:17:58.666Z,7.60
2023-01-07T01:20:27.358Z,7.80
2023-01-07T01:22:55.953Z,8.50
2023-01-07T01:25:24.829Z,8.60
2023-01-07T01:27:53.417Z,10.80
2023-01-07T01:30:22.104Z,7.90
2023-01-07T01:32:51.340Z,7.90
2023-01-07T01:35:20.126Z,8.20
2023-01-07T01:37:49.700Z,7.60
2023-01-07T01:40:18.488Z,8.10
2023-01-07T01:42:47.072Z,7.00
2023-01-07T01:45:18.015Z,7.50
2023-01-07T01:47:59.806Z,9.10
2023-01-07T01:50:39.857Z,9.70
2023-01-07T01:53:22.984Z,7.80
2023-01-07T01:56:04.844Z,9.60
2023-01-07T01:58:41.457Z,9.20
2023-01-07T02:01:10.355Z,7.80
2023-01-07T02:03:39.950Z,9.20
2023-01-07T02:06:18.060Z,8.20
2023-01-07T02:08:46.656Z,6.70
2023-01-07T02:11:25.469Z,10.70
2023-01-07T02:14:29.587Z,7.80
2023-01-07T02:17:36.954Z,8.70
2023-01-07T02:20:50.321Z,8.20
2023-01-07T02:24:08.672Z,8.70
2023-01-07T02:26:43.293Z,7.80
2023-01-07T02:30:00.416Z,8.40
2023-01-07T02:32:39.554Z,9.00
2023-01-07T02:35:43.971Z,8.30
2023-01-07T02:38:32.832Z,9.40
2023-01-07T02:41:44.226Z,10.10
2023-01-07T02:44:43.625Z,9.80
2023-01-07T02:47:34.538Z,10.50
2023-01-07T02:50:07.503Z,7.90
2023-01-07T02:52:37.546Z,8.40
2023-01-07T02:55:54.359Z,9.20
2023-01-07T02:58:52.330Z,11.20
2023-01-07T03:02:09.146Z,9.60
2023-01-07T03:04:40.813Z,8.70
2023-01-07T03:07:21.479Z,8.20
2023-01-07T03:10:01.936Z,8.90
2023-01-07T03:12:45.979Z,8.70
2023-01-07T03:15:37.298Z,8.50
2023-01-07T03:18:30.461Z,8.10
2023-01-07T03:21:11.315Z,8.90
2023-01-07T03:23:48.003Z,10.10
2023-01-07T03:26:26.997Z,8.20
2023-01-07T03:28:59.816Z,8.90
2023-01-07T03:31:29.948Z,8.00
2023-01-07T03:34:12.754Z,9.30
2023-01-07T03:36:53.320Z,8.70
2023-01-07T03:39:26.208Z,8.80
2023-01-07T03:42:14.353Z,8.70
2023-01-07T03:44:43.452Z,9.20
2023-01-07T03:47:13.013Z,14.20
2023-01-07T03:49:42.060Z,16.60
2023-01-07T03:52:10.941Z,17.10
2023-01-07T03:54:39.525Z,13.60
2023-01-07T03:57:08.829Z,19.40
2023-01-07T03:59:38.155Z,15.30
2023-01-07T04:02:07.266Z,9.00
2023-01-07T04:04:37.348Z,9.00
2023-01-07T04:07:06.446Z,7.70
2023-01-07T04:09:35.031Z,7.20
2023-01-07T04:12:04.025Z,8.70
2023-01-07T04:14:33.116Z,9.30
2023-01-07T04:17:01.703Z,8.70
2023-01-07T04:19:30.182Z,8.20
2023-01-07T04:22:00.104Z,8.00
2023-01-07T04:24:28.989Z,7.90
2023-01-07T04:26:57.681Z,8.90
2023-01-07T04:29:26.468Z,8.60
2023-01-07T04:31:55.672Z,7.90
2023-01-07T04:34:25.371Z,8.80
2023-01-07T04:36:54.368Z,8.10
2023-01-07T04:39:24.185Z,9.20
2023-01-07T04:41:52.971Z,8.80
2023-01-07T04:44:21.985Z,10.90
2023-01-07T04:46:50.962Z,12.50
2023-01-07T04:49:20.700Z,12.10
2023-01-07T04:51:49.563Z,11.40
2023-01-07T04:54:18.353Z,12.10
2023-01-07T04:56:46.939Z,10.20
2023-01-07T04:59:16.442Z,11.80
2023-01-07T05:01:45.362Z,13.70
2023-01-07T05:04:14.382Z,13.30
2023-01-07T05:06:43.320Z,14.40
2023-01-07T05:09:12.545Z,14.70
2023-01-07T05:11:41.111Z,13.00
2023-01-07T05:14:12.581Z,13.10
2023-01-07T05:16:41.470Z,12.70
2023-01-07T05:19:12.091Z,13.90
2023-01-07T05:21:44.049Z,14.10
2023-01-07T05:24:13.451Z,13.10
2023-01-07T05:26:42.337Z,15.60
2023-01-07T05:29:11.345Z,14.40
2023-01-07T05:31:41.356Z,13.60
2023-01-07T05:34:10.555Z,15.90
2023-01-07T05:36:39.545Z,17.10
2023-01-07T05:39:08.443Z,17.40
2023-01-07T05:41:37.328Z,18.40
2023-01-07T05:44:06.337Z,15.60
2023-01-07T05:46:35.057Z,14.60
2023-01-07T05:49:03.901Z,14.00
2023-01-07T05:51:32.690Z,14.80
2023-01-07T05:54:01.307Z,16.80
2023-01-07T05:56:29.960Z,14.20
2023-01-07T05:58:58.545Z,15.50
2023-01-07T06:01:27.571Z,20.20
2023-01-07T06:03:56.458Z,13.30
2023-01-07T06:06:25.329Z,15.30
2023-01-07T06:08:53.907Z,13.20
2023-01-07T06:11:22.493Z,12.00
2023-01-07T06:13:51.281Z,24.50
2023-01-07T06:16:19.762Z,22.60
2023-01-07T06:18:48.350Z,17.70
2023-01-07T06:21:18.528Z,24.90
2023-01-07T06:23:47.049Z,19.30
2023-01-07T06:26:15.634Z,22.60
2023-01-07T06:28:44.342Z,23.40
2023-01-07T06:31:13.291Z,31.80
2023-01-07T06:33:42.106Z,32.20
2023-01-07T06:36:10.791Z,36.20
2023-01-07T06:38:39.584Z,46.60
2023-01-07T06:41:09.373Z,38.70
2023-01-07T06:43:37.876Z,35.70
2023-01-07T06:46:06.822Z,32.80
2023-01-07T06:48:35.355Z,27.70
2023-01-07T06:51:04.341Z,30.60
2023-01-07T06:53:32.932Z,28.60
2023-01-07T06:56:01.412Z,31.50
2023-01-07T06:58:30.412Z,43.70
2023-01-07T07:01:07.612Z,48.80
2023-01-07T07:03:36.176Z,41.00
2023-01-07T07:06:05.664Z,35.80
2023-01-07T07:08:34.308Z,41.10
2023-01-07T07:11:02.880Z,36.10
2023-01-07T07:13:31.444Z,35.50
2023-01-07T07:16:00.184Z,31.60
2023-01-07T07:18:29.320Z,30.70
2023-01-07T07:20:58.930Z,33.00
2023-01-07T07:23:27.618Z,30.10
2023-01-07T07:25:56.200Z,25.80
2023-01-07T07:28:24.910Z,27.00
2023-01-07T07:30:53.646Z,33.40
2023-01-07T07:33:22.779Z,25.10
2023-01-07T07:35:51.500Z,22.00
2023-01-07T07:38:20.145Z,22.50
2023-01-07T07:40:49.280Z,23.70
2023-01-07T07:43:17.844Z,23.90
2023-01-07T07:45:46.614Z,18.60
2023-01-07T07:48:16.516Z,23.30
2023-01-07T07:50:45.180Z,25.90
2023-01-07T07:53:15.440Z,29.00
2023-01-07T07:55:44.043Z,30.90
2023-01-07T07:58:13.630Z,33.40
2023-01-07T08:00:42.218Z,34.70
2023-01-07T08:03:11.792Z,35.10
2023-01-07T08:05:43.769Z,30.70
2023-01-07T08:08:15.061Z,36.10
2023-01-07T08:10:43.963Z,31.60
2023-01-07T08:13:12.531Z,25.70
2023-01-07T08:15:41.200Z,30.30
2023-01-07T08:18:10.629Z,40.70
2023-01-07T08:20:39.338Z,39.70
2023-01-07T08:23:09.337Z,34.10
2023-01-07T08:25:37.892Z,31.30
2023-01-07T08:28:06.578Z,27.60
2023-01-07T08:30:35.677Z,25.30
2023-01-07T08:33:07.706Z,22.80
2023-01-07T08:35:36.428Z,15.70
2023-01-07T08:38:09.728Z,11.60
2023-01-07T08:40:39.232Z,12.70
2023-01-07T08:43:12.470Z,17.50
2023-01-07T08:45:41.015Z,33.60
2023-01-07T08:48:09.693Z,19.30
2023-01-07T08:50:38.294Z,22.30
2023-01-07T08:53:06.760Z,45.10
2023-01-07T08:55:35.553Z,30.10
2023-01-07T08:58:04.143Z,32.30
2023-01-07T09:00:32.946Z,44.60
2023-01-07T09:03:03.330Z,50.70
2023-01-07T09:05:33.366Z,30.10
2023-01-07T09:08:04.311Z,17.60
2023-01-07T09:10:32.798Z,20.30
2023-01-07T09:13:01.479Z,15.50
2023-01-07T09:15:30.162Z,13.50
2023-01-07T09:17:58.750Z,40.40
2023-01-07T09:20:27.336Z,16.10
2023-01-07T09:22:55.929Z,43.90
2023-01-07T09:25:24.835Z,21.00
2023-01-07T09:27:53.497Z,58.60
2023-01-07T09:30:22.181Z,28.70
2023-01-07T09:32:50.779Z,16.70
2023-01-07T09:35:20.414Z,21.60
2023-01-07T09:37:49.062Z,30.00
2023-01-07T09:40:30.754Z,23.40
2023-01-07T09:43:18.686Z,17.00
2023-01-07T09:45:54.046Z,11.50
2023-01-07T09:48:41.081Z,10.40
2023-01-07T09:51:28.894Z,11.80
2023-01-07T09:54:04.342Z,9.50
2023-01-07T09:56:35.608Z,15.50
2023-01-07T09:59:05.960Z,30.10
2023-01-07T10:01:45.244Z,14.90
2023-01-07T10:04:34.726Z,26.20
2023-01-07T10:07:09.350Z,36.60
2023-01-07T10:10:08.445Z,50.30
2023-01-07T10:13:00.806Z,41.20
2023-01-07T10:15:48.725Z,39.10
2023-01-07T10:18:33.703Z,40.50
2023-01-07T10:21:27.062Z,47.90
2023-01-07T10:24:05.684Z,83.90
2023-01-07T10:26:41.156Z,40.30
2023-01-07T10:29:28.035Z,72.60
2023-01-07T10:32:01.874Z,70.10
2023-01-07T10:34:38.841Z,37.20
2023-01-07T10:37:33.526Z,36.70
2023-01-07T10:40:17.272Z,62.70
2023-01-07T10:43:20.043Z,43.90
2023-01-07T10:46:20.521Z,27.50
2023-01-07T10:49:03.094Z,26.80
2023-01-07T10:52:17.960Z,23.70
2023-01-07T10:55:14.197Z,24.80
2023-01-07T10:57:43.289Z,26.80
2023-01-07T11:00:17.222Z,30.20
2023-01-07T11:02:58.126Z,25.60
2023-01-07T11:05:37.209Z,13.40
2023-01-07T11:08:16.437Z,17.70
2023-01-07T11:10:45.129Z,25.10
2023-01-07T11:13:19.701Z,24.90
2023-01-07T11:16:00.895Z,19.30
2023-01-07T11:18:52.876Z,29.70
2023-01-07T11:21:49.001Z,32.60
2023-01-07T11:24:30.912Z,22.90
2023-01-07T11:27:18.548Z,16.80
2023-01-07T11:30:04.000Z,19.00
2023-01-07T11:32:38.678Z,12.50
2023-01-07T11:35:29.259Z,11.90
2023-01-07T11:38:00.237Z,13.50
2023-01-07T11:40:32.920Z,12.70
2023-01-07T11:43:16.587Z,16.10
2023-01-07T11:46:19.418Z,13.30
2023-01-07T11:49:03.331Z,15.70
2023-01-07T11:51:40.800Z,13.00
2023-01-07T11:54:26.336Z,22.90
2023-01-07T11:57:25.801Z,17.50
2023-01-07T12:00:31.666Z,20.70
2023-01-07T12:03:13.427Z,12.50
2023-01-07T12:05:45.333Z,8.70
2023-01-07T12:08:22.611Z,9.70
2023-01-07T12:11:02.977Z,11.80
2023-01-07T12:13:32.505Z,11.20
2023-01-07T12:16:05.815Z,15.80
2023-01-07T12:19:11.011Z,10.60
2023-01-07T12:21:51.776Z,14.20
2023-01-07T12:24:50.165Z,13.70
2023-01-07T12:27:46.705Z,11.60
2023-01-07T12:30:44.130Z,22.40
2023-01-07T12:33:32.410Z,25.90
2023-01-07T12:36:56.086Z,15.00
2023-01-07T12:39:39.929Z,9.60
2023-01-07T12:42:18.961Z,14.30
2023-01-07T12:44:52.702Z,8.90
2023-01-07T12:47:34.938Z,26.30
2023-01-07T12:50:32.231Z,40.10
2023-01-07T12:53:16.171Z,12.20
2023-01-07T12:55:54.297Z,8.90
2023-01-07T12:59:47.339Z,14.90
2023-01-07T13:02:30.980Z,18.90
2023-01-07T13:05:36.754Z,17.30
2023-01-07T13:09:00.420Z,15.70
2023-01-07T13:11:59.205Z,9.30
2023-01-07T13:14:36.784Z,11.00
2023-01-07T13:17:30.781Z,11.20
2023-01-07T13:20:58.660Z,11.70
2023-01-07T13:24:00.744Z,10.40
2023-01-07T13:27:01.135Z,7.70
2023-01-07T13:30:01.587Z,7.90
2023-01-07T13:32:35.919Z,5.80
2023-01-07T13:35:29.169Z,6.30
2023-01-07T13:38:24.173Z,6.40
2023-01-07T13:41:20.203Z,9.80
2023-01-07T13:44:40.093Z,6.80
2023-01-07T13:47:12.357Z,7.00
2023-01-07T13:49:57.065Z,8.10
2023-01-07T13:52:33.842Z,9.90
2023-01-07T13:55:29.763Z,9.00
2023-01-07T13:57:59.058Z,14.00
2023-01-07T14:01:18.961Z,22.60
2023-01-07T14:03:55.179Z,15.00
2023-01-07T14:06:24.175Z,11.60
2023-01-07T14:09:00.219Z,16.50
2023-01-07T14:11:32.809Z,18.60
2023-01-07T14:14:54.642Z,9.20
2023-01-07T14:17:40.648Z,10.10
2023-01-07T14:20:27.454Z,9.40
2023-01-07T14:23:39.793Z,9.10
2023-01-07T14:26:17.568Z,8.50
2023-01-07T14:29:40.108Z,10.80
2023-01-07T14:32:38.253Z,15.40
2023-01-07T14:35:13.327Z,15.40
2023-01-07T14:37:47.436Z,10.20
2023-01-07T14:40:30.665Z,27.40
2023-01-07T14:43:01.289Z,14.10
2023-01-07T14:45:42.380Z,10.10
2023-01-07T14:48:10.967Z,11.80
2023-01-07T14:51:36.584Z,13.80
2023-01-07T14:54:33.533Z,13.70
2023-01-07T14:57:29.967Z,10.90
2023-01-07T15:00:54.112Z,12.60
2023-01-07T15:04:09.335Z,12.20
2023-01-07T15:06:42.219Z,27.30
2023-01-07T15:09:39.071Z,19.90
2023-01-07T15:12:37.862Z,26.80
2023-01-07T15:15:57.048Z,24.40
2023-01-07T15:18:26.129Z,21.20
2023-01-07T15:21:33.933Z,15.30
2023-01-07T15:24:25.968Z,17.00
2023-01-07T15:27:39.528Z,19.80
2023-01-07T15:30:36.152Z,19.30
2023-01-07T15:33:35.554Z,28.20
2023-01-07T15:36:09.251Z,23.80
2023-01-07T15:38:56.578Z,39.70
2023-01-07T15:41:36.057Z,34.00
2023-01-07T15:44:25.176Z,50.20
2023-01-07T15:46:54.137Z,44.90
2023-01-07T15:49:28.151Z,47.80
2023-01-07T15:52:02.249Z,61.60
2023-01-07T15:54:39.637Z,58.90
2023-01-07T15:57:37.279Z,50.80
2023-01-07T16:00:09.024Z,35.30
2023-01-07T16:02:43.943Z,28.20
2023-01-07T16:05:12.943Z,25.10
2023-01-07T16:07:53.739Z,12.70
2023-01-07T16:10:27.648Z,9.50
2023-01-07T16:13:16.499Z,10.00
2023-01-07T16:15:45.290Z,10.90
2023-01-07T16:18:15.103Z,9.20
2023-01-07T16:20:58.359Z,8.90
2023-01-07T16:23:31.178Z,15.30
2023-01-07T16:26:23.345Z,45.50
2023-01-07T16:28:57.943Z,39.00
2023-01-07T16:31:29.958Z,34.90
2023-01-07T16:34:00.443Z,29.40
2023-01-07T16:36:32.686Z,154.00
2023-01-07T16:39:14.851Z,105.20
2023-01-07T16:41:47.493Z,86.80
2023-01-07T16:44:45.493Z,185.80
2023-01-07T16:47:27.298Z,66.70
2023-01-07T16:50:17.780Z,58.20
2023-01-07T16:52:57.477Z,63.90
2023-01-07T16:55:47.794Z,58.10
2023-01-07T16:58:38.625Z,51.20
2023-01-07T17:01:09.927Z,56.10
2023-01-07T17:03:52.131Z,47.60
2023-01-07T17:06:27.622Z,40.30
2023-01-07T17:08:57.853Z,43.90
2023-01-07T17:11:39.032Z,39.30
2023-01-07T17:14:38.637Z,34.60
2023-01-07T17:17:28.009Z,36.10
2023-01-07T17:20:25.592Z,35.10
2023-01-07T17:22:54.183Z,34.60
2023-01-07T17:25:28.693Z,38.30
2023-01-07T17:28:08.647Z,37.40
2023-01-07T17:30:37.706Z,43.00
2023-01-07T17:33:06.415Z,44.60
2023-01-07T17:35:44.492Z,60.60
2023-01-07T17:38:15.007Z,114.50
2023-01-07T17:40:45.304Z,100.30
2023-01-07T17:43:35.571Z,57.50
2023-01-07T17:46:13.179Z,48.40
2023-01-07T17:48:41.749Z,48.50
2023-01-07T17:51:11.963Z,36.60
2023-01-07T17:53:46.632Z,33.40
2023-01-07T17:56:16.310Z,33.20
2023-01-07T17:58:45.412Z,33.00
2023-01-07T18:01:24.586Z,37.60
2023-01-07T18:03:53.735Z,42.10
2023-01-07T18:06:24.987Z,49.60
2023-01-07T18:08:54.404Z,65.30
2023-01-07T18:11:46.841Z,91.50
2023-01-07T18:14:16.431Z,102.10
2023-01-07T18:16:45.292Z,93.40
2023-01-07T18:19:15.579Z,74.90
2023-01-07T18:21:44.142Z,69.90
2023-01-07T18:24:21.508Z,61.70
2023-01-07T18:26:50.116Z,77.60
2023-01-07T18:29:21.284Z,72.60
2023-01-07T18:31:49.994Z,65.70
2023-01-07T18:34:18.831Z,55.60
2023-01-07T18:36:47.318Z,36.80
2023-01-07T18:39:19.982Z,38.60
2023-01-07T18:41:51.819Z,31.40
2023-01-07T18:44:23.278Z,30.10
2023-01-07T18:46:52.002Z,31.10
2023-01-07T18:49:20.889Z,20.10
2023-01-07T18:51:49.882Z,17.90
2023-01-07T18:54:18.573Z,15.30
2023-01-07T18:56:47.484Z,17.00
2023-01-07T18:59:16.052Z,19.60
2023-01-07T19:01:44.817Z,28.20
2023-01-07T19:04:13.793Z,23.80
2023-01-07T19:06:42.525Z,20.70
2023-01-07T19:09:11.318Z,16.70
2023-01-07T19:11:50.230Z,13.20
2023-01-07T19:14:18.816Z,13.40
2023-01-07T19:16:47.451Z,11.20
2023-01-07T19:19:16.699Z,13.10
2023-01-07T19:21:47.028Z,63.90
2023-01-07T19:24:17.452Z,81.10
2023-01-07T19:26:47.168Z,78.20
2023-01-07T19:29:15.852Z,78.90
2023-01-07T19:31:45.953Z,81.70
2023-01-07T19:34:16.812Z,61.70
2023-01-07T19:36:47.478Z,71.30
2023-01-07T19:39:18.779Z,52.60
2023-01-07T19:41:48.279Z,47.20
2023-01-07T19:44:18.311Z,54.80
2023-01-07T19:46:49.096Z,51.30
2023-01-07T19:49:18.865Z,52.20
2023-01-07T19:51:47.968Z,47.50
2023-01-07T19:54:17.141Z,45.10
2023-01-07T19:56:50.349Z,46.50
2023-01-07T19:59:24.565Z,42.10
2023-01-07T20:02:06.028Z,30.20
2023-01-07T20:04:35.261Z,36.50
2023-01-07T20:07:04.655Z,102.30
2023-01-07T20:09:34.777Z,76.00
2023-01-07T20:12:03.389Z,44.90
2023-01-07T20:14:32.048Z,123.90
2023-01-07T20:17:02.921Z,84.40
2023-01-07T20:19:32.805Z,70.30
2023-01-07T20:22:03.559Z,63.60
2023-01-07T20:24:34.283Z,425.70
2023-01-07T20:27:05.948Z,381.80
2023-01-07T20:29:37.748Z,110.70
2023-01-07T20:32:10.629Z,58.00
2023-01-07T20:34:45.723Z,29.50
2023-01-07T20:37:19.523Z,34.30
2023-01-07T20:39:50.192Z,43.40
2023-01-07T20:42:22.131Z,43.40
2023-01-07T20:44:54.752Z,58.70
2023-01-07T20:47:26.707Z,37.10
2023-01-07T20:50:01.570Z,34.80
2023-01-07T20:52:34.117Z,49.20
2023-01-07T20:55:05.576Z,99.50
2023-01-07T20:57:34.819Z,118.40
2023-01-07T21:00:05.468Z,52.20
2023-01-07T21:02:35.601Z,68.60
2023-01-07T21:05:06.549Z,110.90
2023-01-07T21:07:36.201Z,127.90
2023-01-07T21:10:07.504Z,142.50
2023-01-07T21:12:37.916Z,64.10
2023-01-07T21:15:08.143Z,26.90
2023-01-07T21:17:37.187Z,21.50
2023-01-07T21:20:13.337Z,256.10
2023-01-07T21:22:43.237Z,375.40
2023-01-07T21:25:16.436Z,322.40
2023-01-07T21:27:49.401Z,372.70
2023-01-07T21:30:19.691Z,449.10
2023-01-07T21:32:50.844Z,75.20
2023-01-07T21:35:23.422Z,43.60
2023-01-07T21:37:55.182Z,36.60
2023-01-07T21:40:27.319Z,27.60
2023-01-07T21:43:01.767Z,29.40
2023-01-07T21:45:32.933Z,23.70
2023-01-07T21:48:02.639Z,42.10
2023-01-07T21:50:33.061Z,35.80
2023-01-07T21:53:01.633Z,27.00
2023-01-07T21:55:30.322Z,16.30
2023-01-07T21:57:59.524Z,13.80
2023-01-07T22:00:28.895Z,24.60
2023-01-07T22:02:57.865Z,24.20
2023-01-07T22:05:26.406Z,29.70
2023-01-07T22:07:55.192Z,17.40
2023-01-07T22:10:25.657Z,14.80
2023-01-07T22:12:55.555Z,16.00
2023-01-07T22:15:25.348Z,18.60
2023-01-07T22:17:56.385Z,15.50
2023-01-07T22:20:26.202Z,23.80
2023-01-07T22:22:55.836Z,23.20
2023-01-07T22:25:24.292Z,20.90
2023-01-07T22:28:02.767Z,15.60
2023-01-07T22:30:34.550Z,18.80
2023-01-07T22:33:03.152Z,12.30
2023-01-07T22:35:35.166Z,14.50
2023-01-07T22:38:04.532Z,13.00
2023-01-07T22:40:38.592Z,17.70
2023-01-07T22:43:12.096Z,14.10
2023-01-07T22:45:58.950Z,16.00
2023-01-07T22:48:32.400Z,13.50
2023-01-07T22:51:12.393Z,19.50
2023-01-07T22:53:41.486Z,18.80
2023-01-07T22:56:10.183Z,12.60
2023-01-07T22:58:38.866Z,11.50
2023-01-07T23:01:13.491Z,11.80
2023-01-07T23:03:43.817Z,10.50
2023-01-07T23:06:15.220Z,13.70
2023-01-07T23:08:44.574Z,10.70
2023-01-07T23:11:33.326Z,13.20
2023-01-07T23:14:03.079Z,14.80
2023-01-07T23:16:31.922Z,17.30
2023-01-07T23:19:00.838Z,16.90
2023-01-07T23:21:31.768Z,27.60
2023-01-07T23:24:00.995Z,14.40
2023-01-07T23:26:29.648Z,17.70
2023-01-07T23:28:58.436Z,17.50
2023-01-07T23:31:27.241Z,19.90
2023-01-07T23:33:56.425Z,44.00
2023-01-07T23:36:25.238Z,17.00
2023-01-07T23:38:54.340Z,15.70
2023-01-07T23:41:23.693Z,12.80
2023-01-07T23:43:52.401Z,10.30
2023-01-07T23:46:21.192Z,13.70
2023-01-07T23:48:50.182Z,10.90
2023-01-07T23:51:21.423Z,12.30
2023-01-07T23:53:50.425Z,12.20
2023-01-07T23:56:21.703Z,10.80
2023-01-07T23:58:51.086Z,10.80
